Deer Harbor, Washington
Current Conditions -  °F | °C
As of 5:35 AM on Thursday 23 Oct 2014 (Local Time) from KORS Reporting Station
Few Clouds Few Clouds  
Wind Chill: 50°   Ceiling: Unl
Heat Index: 50°   Visibility: 10mi
Dew Point: 48°   Wind: 7mph
Humidity: 94%   Direction: 200°SSW
Pressure: 29.66"   Gusts: NA
Location:  48.62°N, 122.99°W
Report Text: KORS 231235Z AUTO 20006KT 10SM FEW080 10/09 A2966 RMK AO2
Loading
Personal Weather Stations






























Interactive Weather Map
Tropical Storm Tracking
New forecast layout! Learn more

10-Day Weather Forecast

Advertisements
Track Severe Weather on mobile